createdAt,value
2022-10-21T00:01:00.770Z,21.00
2022-10-21T00:03:40.078Z,18.10
2022-10-21T00:06:10.864Z,19.30
2022-10-21T00:08:40.498Z,19.50
2022-10-21T00:11:10.514Z,17.00
2022-10-21T00:13:39.980Z,18.40
2022-10-21T00:16:16.318Z,18.80
2022-10-21T00:18:49.422Z,20.80
2022-10-21T00:21:22.307Z,17.70
2022-10-21T00:23:50.291Z,21.90
2022-10-21T00:26:21.913Z,22.90
2022-10-21T00:28:51.736Z,25.60
2022-10-21T00:31:19.346Z,24.40
2022-10-21T00:33:46.989Z,25.70
2022-10-21T00:36:16.232Z,29.10
2022-10-21T00:38:48.547Z,37.70
2022-10-21T00:41:19.408Z,40.10
2022-10-21T00:43:59.186Z,38.40
2022-10-21T00:46:41.371Z,33.30
2022-10-21T00:49:23.276Z,26.20
2022-10-21T00:51:57.448Z,23.50
2022-10-21T00:54:28.298Z,24.90
2022-10-21T00:56:58.474Z,23.20
2022-10-21T00:59:32.329Z,25.70
2022-10-21T01:04:29.581Z,39.10
2022-10-21T01:07:00.559Z,35.20
2022-10-21T01:09:30.455Z,33.30
2022-10-21T01:12:02.908Z,34.80
2022-10-21T01:14:55.933Z,36.70
2022-10-21T01:17:51.453Z,32.80
2022-10-21T01:20:30.485Z,33.90
2022-10-21T01:23:35.615Z,34.20
2022-10-21T01:26:25.392Z,33.60
2022-10-21T01:29:18.716Z,29.20
2022-10-21T01:32:06.858Z,27.70
2022-10-21T01:35:03.926Z,30.90
2022-10-21T01:37:57.838Z,28.30
2022-10-21T01:40:55.818Z,28.60
2022-10-21T01:43:29.674Z,23.20
2022-10-21T01:46:27.136Z,24.90
2022-10-21T01:49:11.912Z,23.80
2022-10-21T01:51:40.729Z,31.40
2022-10-21T01:54:17.074Z,30.40
2022-10-21T01:56:49.166Z,32.50
2022-10-21T01:59:20.945Z,33.90
2022-10-21T02:01:52.476Z,32.60
2022-10-21T02:04:24.644Z,32.50
2022-10-21T02:06:52.325Z,32.20
2022-10-21T02:09:20.714Z,35.00
2022-10-21T02:11:54.937Z,34.50
2022-10-21T02:14:33.032Z,37.40
2022-10-21T02:17:01.966Z,33.80
2022-10-21T02:22:10.573Z,33.40
2022-10-21T02:24:57.130Z,31.60
2022-10-21T02:27:24.925Z,32.10
2022-10-21T02:29:59.410Z,37.50
2022-10-21T02:32:33.217Z,33.90
2022-10-21T02:38:15.654Z,36.10
2022-10-21T02:41:05.349Z,35.70
2022-10-21T02:43:47.974Z,37.40
2022-10-21T02:46:15.977Z,40.00
2022-10-21T02:48:48.594Z,37.70
2022-10-21T02:51:17.715Z,40.70
2022-10-21T02:53:46.571Z,36.90
2022-10-21T02:56:15.483Z,37.90
2022-10-21T02:58:43.319Z,37.20
2022-10-21T03:01:11.114Z,36.80
2022-10-21T03:03:38.800Z,36.10
2022-10-21T03:06:08.463Z,38.40
2022-10-21T03:08:36.523Z,35.70
2022-10-21T03:11:05.463Z,37.40
2022-10-21T03:13:34.336Z,35.40
2022-10-21T03:16:02.031Z,37.10
2022-10-21T03:18:29.722Z,39.50
2022-10-21T03:20:57.531Z,38.00
2022-10-21T03:23:25.222Z,35.70
2022-10-21T03:25:52.972Z,36.10
2022-10-21T03:28:20.688Z,37.50
2022-10-21T03:30:49.640Z,36.70
2022-10-21T03:33:18.491Z,39.20
2022-10-21T03:35:46.284Z,37.60
2022-10-21T03:38:15.050Z,37.10
2022-10-21T03:40:42.923Z,37.60
2022-10-21T03:43:10.648Z,36.50
2022-10-21T03:45:38.439Z,36.80
2022-10-21T03:48:06.201Z,36.20
2022-10-21T03:50:34.039Z,33.80
2022-10-21T03:53:09.962Z,33.90
2022-10-21T03:55:42.498Z,34.90
2022-10-21T03:58:10.207Z,33.70
2022-10-21T04:00:38.233Z,32.60
2022-10-21T04:03:05.878Z,32.50
2022-10-21T04:05:33.799Z,32.10
2022-10-21T04:08:02.731Z,32.00
2022-10-21T04:10:30.440Z,30.40
2022-10-21T04:12:58.255Z,33.20
2022-10-21T04:15:29.002Z,31.50
2022-10-21T04:17:56.964Z,30.40
2022-10-21T04:20:24.716Z,30.80
2022-10-21T04:22:53.626Z,31.90
2022-10-21T04:25:21.518Z,32.50
2022-10-21T04:27:49.420Z,30.90
2022-10-21T04:30:17.421Z,29.00
2022-10-21T04:32:45.193Z,31.60
2022-10-21T04:35:15.501Z,30.70
2022-10-21T04:37:44.435Z,31.60
2022-10-21T04:40:12.157Z,31.60
2022-10-21T04:42:41.379Z,25.50
2022-10-21T04:45:11.576Z,31.30
2022-10-21T04:47:39.418Z,29.20
2022-10-21T04:50:10.794Z,30.80
2022-10-21T04:52:40.980Z,30.90
2022-10-21T04:55:09.245Z,31.00
2022-10-21T04:57:36.957Z,33.70
2022-10-21T05:00:07.738Z,30.30
2022-10-21T05:02:35.600Z,28.60
2022-10-21T05:05:04.702Z,32.40
2022-10-21T05:07:32.414Z,33.70
2022-10-21T05:10:00.067Z,34.20
2022-10-21T05:12:27.814Z,34.30
2022-10-21T05:14:55.615Z,33.50
2022-10-21T05:17:25.138Z,33.90
2022-10-21T05:19:52.858Z,32.90
2022-10-21T05:22:20.631Z,31.60
2022-10-21T05:24:50.695Z,30.70
2022-10-21T05:27:19.969Z,29.90
2022-10-21T05:29:47.678Z,31.50
2022-10-21T05:32:17.668Z,31.30
2022-10-21T05:34:45.412Z,31.90
2022-10-21T05:37:13.363Z,31.80
2022-10-21T05:39:43.122Z,32.60
2022-10-21T05:42:10.834Z,30.10
2022-10-21T05:44:38.672Z,30.50
2022-10-21T05:47:06.469Z,28.00
2022-10-21T05:49:34.198Z,30.00
2022-10-21T05:52:03.402Z,29.20
2022-10-21T05:54:31.291Z,28.90
2022-10-21T05:56:58.941Z,26.90
2022-10-21T05:59:28.546Z,30.20
2022-10-21T06:01:56.303Z,28.10
2022-10-21T06:04:26.400Z,29.00
2022-10-21T06:06:58.992Z,28.10
2022-10-21T06:09:26.740Z,26.90
2022-10-21T06:11:58.735Z,26.30
2022-10-21T06:14:27.809Z,26.90
2022-10-21T06:16:57.809Z,29.40
2022-10-21T06:19:25.449Z,30.10
2022-10-21T06:21:55.204Z,34.90
2022-10-21T06:24:23.019Z,35.10
2022-10-21T06:26:51.880Z,34.20
2022-10-21T06:29:19.617Z,32.60
2022-10-21T06:31:47.318Z,32.20
2022-10-21T06:36:46.557Z,32.20
2022-10-21T06:39:14.303Z,31.70
2022-10-21T06:41:42.044Z,31.40
2022-10-21T06:44:09.730Z,31.90
2022-10-21T06:46:39.511Z,32.50
2022-10-21T06:49:07.249Z,33.30
2022-10-21T06:51:34.992Z,32.50
2022-10-21T06:54:02.688Z,32.50
2022-10-21T06:56:32.893Z,30.70
2022-10-21T06:59:02.766Z,29.20
2022-10-21T07:01:48.497Z,26.20
2022-10-21T07:04:25.332Z,26.90
2022-10-21T07:06:54.414Z,26.00
2022-10-21T07:09:22.209Z,25.20
2022-10-21T07:11:49.993Z,25.60
2022-10-21T07:14:17.671Z,26.20
2022-10-21T07:16:45.438Z,24.20
2022-10-21T07:19:16.497Z,25.30
2022-10-21T07:21:45.541Z,23.20
2022-10-21T07:24:13.249Z,21.80
2022-10-21T07:26:42.268Z,22.60
2022-10-21T07:29:10.240Z,21.60
2022-10-21T07:31:39.634Z,20.40
2022-10-21T07:34:12.371Z,22.20
2022-10-21T07:36:48.912Z,17.50
2022-10-21T07:39:22.482Z,22.30
2022-10-21T07:41:57.835Z,21.20
2022-10-21T07:44:26.711Z,21.20
2022-10-21T07:46:54.836Z,20.80
2022-10-21T07:49:24.508Z,20.50
2022-10-21T07:51:53.315Z,20.90
2022-10-21T07:54:22.263Z,20.30
2022-10-21T07:56:53.035Z,16.60
2022-10-21T07:59:22.257Z,17.10
2022-10-21T08:01:54.080Z,15.10
2022-10-21T08:04:25.976Z,14.40
2022-10-21T08:06:53.671Z,13.20
2022-10-21T08:09:23.196Z,11.00
2022-10-21T08:11:50.879Z,9.10
2022-10-21T08:14:18.655Z,6.20
2022-10-21T08:16:46.454Z,6.20
2022-10-21T08:19:19.755Z,5.60
2022-10-21T08:21:47.638Z,6.00
2022-10-21T08:24:15.634Z,5.10
2022-10-21T08:26:45.985Z,5.30
2022-10-21T08:29:13.637Z,4.90
2022-10-21T08:31:41.441Z,5.10
2022-10-21T08:34:10.790Z,4.10
2022-10-21T08:36:39.662Z,4.60
2022-10-21T08:39:07.908Z,4.00
2022-10-21T08:42:14.635Z,4.00
2022-10-21T08:44:59.811Z,4.30
2022-10-21T08:47:46.030Z,4.30
2022-10-21T08:50:25.852Z,4.20
2022-10-21T08:53:21.319Z,4.00
2022-10-21T08:55:56.054Z,3.70
2022-10-21T08:58:25.562Z,3.50
2022-10-21T09:01:23.499Z,3.70
2022-10-21T09:04:11.269Z,3.30
2022-10-21T09:07:09.919Z,3.00
2022-10-21T09:09:54.412Z,3.40
2022-10-21T09:12:44.928Z,3.10
2022-10-21T09:15:30.992Z,2.70
2022-10-21T09:18:07.771Z,2.80
2022-10-21T09:20:56.020Z,2.80
2022-10-21T09:23:37.529Z,2.90
2022-10-21T09:26:31.409Z,3.00
2022-10-21T09:31:33.635Z,2.70
2022-10-21T09:34:09.707Z,3.10
2022-10-21T09:36:48.066Z,2.90
2022-10-21T09:39:38.855Z,3.10
2022-10-21T09:42:12.422Z,2.80
2022-10-21T09:44:52.697Z,3.00
2022-10-21T09:47:24.667Z,2.90
2022-10-21T09:50:07.674Z,2.70
2022-10-21T09:52:38.985Z,3.20
2022-10-21T09:55:14.170Z,2.90
2022-10-21T09:57:55.218Z,2.50
2022-10-21T10:00:39.893Z,3.00
2022-10-21T10:03:09.962Z,2.50
2022-10-21T10:05:48.356Z,2.80
2022-10-21T10:08:43.421Z,2.90
2022-10-21T10:11:17.153Z,2.70
2022-10-21T10:13:51.977Z,2.50
2022-10-21T10:16:22.909Z,2.50
2022-10-21T10:18:54.311Z,2.80
2022-10-21T10:21:22.842Z,2.60
2022-10-21T10:23:54.911Z,2.10
2022-10-21T10:26:31.156Z,2.30
2022-10-21T10:29:18.698Z,2.90
2022-10-21T10:31:58.006Z,3.20
2022-10-21T10:34:40.849Z,3.00
2022-10-21T10:37:18.842Z,3.20
2022-10-21T10:39:52.371Z,2.90
2022-10-21T10:42:24.319Z,3.70
2022-10-21T10:44:56.224Z,3.00
2022-10-21T10:47:31.558Z,2.90
2022-10-21T10:49:59.564Z,3.10
2022-10-21T10:52:27.339Z,2.70
2022-10-21T10:55:16.366Z,2.40
2022-10-21T10:57:59.118Z,2.30
2022-10-21T11:00:45.922Z,2.10
2022-10-21T11:03:29.062Z,2.50
2022-10-21T11:06:08.902Z,2.10
2022-10-21T11:08:46.802Z,2.30
2022-10-21T11:11:36.523Z,2.60
2022-10-21T11:14:16.437Z,2.80
2022-10-21T11:17:13.815Z,2.30
2022-10-21T11:19:58.719Z,2.50
2022-10-21T11:22:48.080Z,2.80
2022-10-21T11:25:36.882Z,2.70
2022-10-21T11:28:21.729Z,2.60
2022-10-21T11:31:14.623Z,2.70
2022-10-21T11:34:13.948Z,2.30
2022-10-21T11:37:21.371Z,2.80
2022-10-21T11:40:17.658Z,2.90
2022-10-21T11:42:54.280Z,2.60
2022-10-21T11:45:37.014Z,2.80
2022-10-21T11:48:14.496Z,3.10
2022-10-21T11:51:16.677Z,2.50
2022-10-21T11:54:16.702Z,2.80
2022-10-21T11:57:18.075Z,2.90
2022-10-21T12:00:18.875Z,2.80
2022-10-21T12:03:18.332Z,3.30
2022-10-21T12:06:01.859Z,2.70
2022-10-21T12:11:33.002Z,2.80
2022-10-21T12:14:19.765Z,2.90
2022-10-21T12:16:50.262Z,2.70
2022-10-21T12:19:19.206Z,2.30
2022-10-21T12:21:47.158Z,2.60
2022-10-21T12:24:34.350Z,3.20
2022-10-21T12:27:26.272Z,3.10
2022-10-21T12:30:33.425Z,3.10
2022-10-21T12:33:22.866Z,2.90
2022-10-21T12:35:57.331Z,2.90
2022-10-21T12:38:48.790Z,3.00
2022-10-21T12:41:24.813Z,3.50
2022-10-21T12:44:21.492Z,3.00
2022-10-21T12:46:55.097Z,3.50
2022-10-21T12:49:25.656Z,3.00
2022-10-21T12:52:03.206Z,3.30
2022-10-21T12:54:42.981Z,3.80
2022-10-21T12:57:24.395Z,6.20
2022-10-21T13:00:27.408Z,6.10
2022-10-21T13:03:03.258Z,4.20
2022-10-21T13:05:36.946Z,3.60
2022-10-21T13:08:20.354Z,4.70
2022-10-21T13:11:06.509Z,3.90
2022-10-21T13:13:46.059Z,3.80
2022-10-21T13:16:19.729Z,3.70
2022-10-21T13:18:59.053Z,3.30
2022-10-21T13:21:29.793Z,3.10
2022-10-21T13:24:16.703Z,5.00
2022-10-21T13:27:00.704Z,3.50
2022-10-21T13:29:37.881Z,4.40
2022-10-21T13:32:33.571Z,5.80
2022-10-21T13:35:20.256Z,6.30
2022-10-21T13:38:18.784Z,4.40
2022-10-21T13:40:50.117Z,3.50
2022-10-21T13:43:29.139Z,3.40
2022-10-21T13:46:05.434Z,3.60
2022-10-21T13:48:40.115Z,4.10
2022-10-21T13:51:21.481Z,3.00
2022-10-21T13:53:54.768Z,3.80
2022-10-21T13:56:32.095Z,4.80
2022-10-21T13:59:01.190Z,4.10
2022-10-21T14:01:43.809Z,4.50
2022-10-21T14:04:20.811Z,4.30
2022-10-21T14:06:53.496Z,4.80
2022-10-21T14:09:27.386Z,4.00
2022-10-21T14:12:06.618Z,4.60
2022-10-21T14:14:40.224Z,4.40
2022-10-21T14:17:23.585Z,4.60
2022-10-21T14:19:55.958Z,3.50
2022-10-21T14:22:29.172Z,3.80
2022-10-21T14:27:35.002Z,3.40
2022-10-21T14:30:07.454Z,3.40
2022-10-21T14:32:38.058Z,3.60
2022-10-21T14:35:10.201Z,3.70
2022-10-21T14:37:49.098Z,4.00
2022-10-21T14:40:32.883Z,4.30
2022-10-21T14:43:19.716Z,4.40
2022-10-21T14:45:52.701Z,4.50
2022-10-21T14:48:29.801Z,4.10
2022-10-21T14:51:06.609Z,4.10
2022-10-21T14:53:46.575Z,3.10
2022-10-21T14:56:41.089Z,3.80
2022-10-21T14:59:31.753Z,3.50
2022-10-21T15:02:01.789Z,4.20
2022-10-21T15:04:53.595Z,4.60
2022-10-21T15:07:33.217Z,5.40
2022-10-21T15:10:05.327Z,4.40
2022-10-21T15:12:39.262Z,4.40
2022-10-21T15:15:49.743Z,4.30
2022-10-21T15:18:30.222Z,4.20
2022-10-21T15:21:13.874Z,4.40
2022-10-21T15:24:02.112Z,4.60
2022-10-21T15:26:38.258Z,4.90
2022-10-21T15:29:20.379Z,4.80
2022-10-21T15:31:48.518Z,4.80
2022-10-21T15:34:20.111Z,5.10
2022-10-21T15:36:48.157Z,5.10
2022-10-21T15:39:15.777Z,5.80
2022-10-21T15:41:48.417Z,5.20
2022-10-21T15:44:28.447Z,6.10
2022-10-21T15:47:01.232Z,4.60
2022-10-21T15:49:35.189Z,4.90
2022-10-21T15:52:02.922Z,4.50
2022-10-21T15:54:31.218Z,5.10
2022-10-21T15:57:01.014Z,4.50
2022-10-21T15:59:31.359Z,5.30
2022-10-21T16:02:00.309Z,5.20
2022-10-21T16:04:28.252Z,5.20
2022-10-21T16:06:56.376Z,5.40
2022-10-21T16:09:28.011Z,5.80
2022-10-21T16:12:00.961Z,5.60
2022-10-21T16:14:30.760Z,6.70
2022-10-21T16:16:59.607Z,6.30
2022-10-21T16:19:28.785Z,6.10
2022-10-21T16:21:56.730Z,6.10
2022-10-21T16:24:24.586Z,6.50
2022-10-21T16:26:52.395Z,6.20
2022-10-21T16:29:25.471Z,6.30
2022-10-21T16:31:53.768Z,6.30
2022-10-21T16:34:22.771Z,6.30
2022-10-21T16:36:50.443Z,6.60
2022-10-21T16:39:24.321Z,5.90
2022-10-21T16:41:52.259Z,6.10
2022-10-21T16:44:19.914Z,6.80
2022-10-21T16:46:54.511Z,7.00
2022-10-21T16:49:27.285Z,7.10
2022-10-21T16:51:55.318Z,6.40
2022-10-21T16:54:23.811Z,6.50
2022-10-21T16:56:54.828Z,6.60
2022-10-21T16:59:23.786Z,6.30
2022-10-21T17:01:52.372Z,5.70
2022-10-21T17:04:20.115Z,5.40
2022-10-21T17:06:48.414Z,5.90
2022-10-21T17:09:16.526Z,5.70
2022-10-21T17:11:44.258Z,5.90
2022-10-21T17:14:17.594Z,5.70
2022-10-21T17:16:45.662Z,5.20
2022-10-21T17:19:14.757Z,4.70
2022-10-21T17:21:42.976Z,6.00
2022-10-21T17:24:15.204Z,5.70
2022-10-21T17:26:43.823Z,5.20
2022-10-21T17:29:12.750Z,5.30
2022-10-21T17:31:43.050Z,4.70
2022-10-21T17:34:27.494Z,5.00
2022-10-21T17:36:55.369Z,5.10
2022-10-21T17:39:24.411Z,6.20
2022-10-21T17:41:52.167Z,5.60
2022-10-21T17:44:20.981Z,5.40
2022-10-21T17:46:54.265Z,5.10
2022-10-21T17:49:24.321Z,6.10
2022-10-21T17:51:52.908Z,5.10
2022-10-21T17:54:26.042Z,5.50
2022-10-21T17:56:58.364Z,5.20
2022-10-21T17:59:27.548Z,5.10
2022-10-21T18:01:55.245Z,5.90
2022-10-21T18:04:22.954Z,6.40
2022-10-21T18:06:50.616Z,6.10
2022-10-21T18:09:18.469Z,5.50
2022-10-21T18:11:49.657Z,6.20
2022-10-21T18:14:18.413Z,5.80
2022-10-21T18:16:46.070Z,6.20
2022-10-21T18:19:14.032Z,5.50
2022-10-21T18:21:41.675Z,6.30
2022-10-21T18:24:12.409Z,5.40
2022-10-21T18:26:41.374Z,5.50
2022-10-21T18:29:09.139Z,6.30
2022-10-21T18:31:38.524Z,6.50
2022-10-21T18:34:12.010Z,6.10
2022-10-21T18:36:41.634Z,6.10
2022-10-21T18:39:12.606Z,5.80
2022-10-21T18:41:41.050Z,5.50
2022-10-21T18:44:12.913Z,5.60
2022-10-21T18:46:43.538Z,5.00
2022-10-21T18:49:15.698Z,5.40
2022-10-21T18:51:43.433Z,5.50
2022-10-21T18:54:11.277Z,5.00
2022-10-21T18:56:42.011Z,5.60
2022-10-21T18:59:10.899Z,4.90
2022-10-21T19:01:42.132Z,5.50
2022-10-21T19:04:10.816Z,4.70
2022-10-21T19:06:46.489Z,4.90
2022-10-21T19:09:22.188Z,5.40
2022-10-21T19:11:50.178Z,5.00
2022-10-21T19:14:19.890Z,5.80
2022-10-21T19:16:49.206Z,5.30
2022-10-21T19:19:17.815Z,4.90
2022-10-21T19:21:47.009Z,4.50
2022-10-21T19:24:15.170Z,5.50
2022-10-21T19:26:47.309Z,5.50
2022-10-21T19:29:19.938Z,5.30
2022-10-21T19:31:51.542Z,4.70
2022-10-21T19:34:29.043Z,4.70
2022-10-21T19:36:56.908Z,5.00
2022-10-21T19:39:29.253Z,4.80
2022-10-21T19:42:03.318Z,5.20
2022-10-21T19:44:31.803Z,5.00
2022-10-21T19:47:00.108Z,5.20
2022-10-21T19:49:27.944Z,4.90
2022-10-21T19:51:55.926Z,5.10
2022-10-21T19:54:24.152Z,4.50
2022-10-21T19:56:52.825Z,5.40
2022-10-21T19:59:20.661Z,4.80
2022-10-21T20:01:49.048Z,4.70
2022-10-21T20:04:19.269Z,5.00
2022-10-21T20:06:50.097Z,4.30
2022-10-21T20:09:17.994Z,5.40
2022-10-21T20:11:45.942Z,4.90
2022-10-21T20:14:17.795Z,4.90
2022-10-21T20:16:53.654Z,5.40
2022-10-21T20:19:21.568Z,5.10
2022-10-21T20:21:49.872Z,4.70
2022-10-21T20:24:17.747Z,4.90
2022-10-21T20:26:50.236Z,5.20
2022-10-21T20:29:19.054Z,5.00
2022-10-21T20:31:46.922Z,5.00
2022-10-21T20:34:14.790Z,4.50
2022-10-21T20:36:45.729Z,5.60
2022-10-21T20:39:16.398Z,5.40
2022-10-21T20:41:44.953Z,4.20
2022-10-21T20:44:18.707Z,5.30
2022-10-21T20:46:46.703Z,5.10
2022-10-21T20:49:17.435Z,5.10
2022-10-21T20:51:45.612Z,5.20
2022-10-21T20:54:16.973Z,5.30
2022-10-21T20:56:47.713Z,5.80
2022-10-21T20:59:19.211Z,4.40
2022-10-21T21:01:51.168Z,5.40
2022-10-21T21:04:23.785Z,4.90
2022-10-21T21:06:54.072Z,4.70
2022-10-21T21:12:11.493Z,4.30
2022-10-21T21:14:42.760Z,5.70
2022-10-21T21:17:10.445Z,5.60
2022-10-21T21:19:41.577Z,5.50
2022-10-21T21:22:09.408Z,5.20
2022-10-21T21:24:39.940Z,4.70
2022-10-21T21:27:07.701Z,4.80
2022-10-21T21:29:38.826Z,5.50
2022-10-21T21:32:06.522Z,5.50
2022-10-21T21:34:34.225Z,5.30
2022-10-21T21:37:01.963Z,5.10
2022-10-21T21:39:29.820Z,5.40
2022-10-21T21:41:58.161Z,5.90
2022-10-21T21:44:28.161Z,5.30
2022-10-21T21:46:55.930Z,5.40
2022-10-21T21:49:23.880Z,5.30
2022-10-21T21:51:57.417Z,5.40
2022-10-21T21:54:25.756Z,5.40
2022-10-21T21:57:00.645Z,5.60
2022-10-21T21:59:41.440Z,5.30
2022-10-21T22:02:10.193Z,4.80
2022-10-21T22:04:39.674Z,5.10
2022-10-21T22:07:07.888Z,5.10
2022-10-21T22:09:37.630Z,5.30
2022-10-21T22:12:05.615Z,4.90
2022-10-21T22:14:33.296Z,4.90
2022-10-21T22:17:01.367Z,5.50
2022-10-21T22:19:29.041Z,4.90
2022-10-21T22:21:58.071Z,4.90
2022-10-21T22:24:25.825Z,5.10
2022-10-21T22:26:53.551Z,4.90
2022-10-21T22:29:22.687Z,4.90
2022-10-21T22:31:50.336Z,4.50
2022-10-21T22:34:20.701Z,4.50
2022-10-21T22:36:48.367Z,4.60
2022-10-21T22:39:16.004Z,4.70
2022-10-21T22:41:43.700Z,5.20
2022-10-21T22:44:15.393Z,4.90
2022-10-21T22:46:43.169Z,5.50
2022-10-21T22:49:10.792Z,4.90
2022-10-21T22:51:38.504Z,4.90
2022-10-21T22:54:19.122Z,5.20
2022-10-21T22:56:48.265Z,4.90
2022-10-21T22:59:16.040Z,5.20
2022-10-21T23:01:43.835Z,4.60
2022-10-21T23:04:11.509Z,4.60
2022-10-21T23:06:39.220Z,5.30
2022-10-21T23:09:09.534Z,4.90
2022-10-21T23:11:37.502Z,4.60
2022-10-21T23:14:08.917Z,4.80
2022-10-21T23:16:38.623Z,4.90
2022-10-21T23:19:08.924Z,4.70
2022-10-21T23:21:42.415Z,4.60
2022-10-21T23:24:14.365Z,4.80
2022-10-21T23:26:42.498Z,4.70
2022-10-21T23:29:10.257Z,5.20
2022-10-21T23:31:37.997Z,5.80
2022-10-21T23:34:06.130Z,4.40
2022-10-21T23:36:36.787Z,5.30
2022-10-21T23:39:05.350Z,5.00
2022-10-21T23:41:33.065Z,5.50
2022-10-21T23:44:00.823Z,5.50
2022-10-21T23:46:32.262Z,4.90
2022-10-21T23:48:59.942Z,5.70
2022-10-21T23:51:30.365Z,4.60
2022-10-21T23:53:57.996Z,5.50
2022-10-21T23:56:25.736Z,4.50
2022-10-21T23:59:01.227Z,4.80
